Time;durP1;ratioP1;P1;durP2;ratioP2;P2;SDS_P1;SDS_P2;PMS_P1;PMS_P2;Temp;Humidity;BMP_temperature;BMP_pressure;BME280_temperature;BME280_humidity;BME280_pressure;Samples;Min_cycle;Max_cycle;Signal;HPM_P1;HPM_P2
2022/10/27 00:01:31;;;;;;;2.08;0.52;;;25.40;58.80;;;;;;4045590;29;20905;-57
2022/10/27 00:03:54;;;;;;;1.25;0.60;;;25.40;58.80;;;;;;4046794;29;20032;-58
2022/10/27 00:06:17;;;;;;;4.38;0.82;;;25.40;58.70;;;;;;4042478;29;20048;-56
2022/10/27 00:08:40;;;;;;;1.50;0.47;;;25.50;58.80;;;;;;4044775;29;20040;-59
2022/10/27 00:11:07;;;;;;;1.30;0.50;;;25.40;58.60;;;;;;4044531;29;20488;-60
2022/10/27 00:13:30;;;;;;;1.42;0.40;;;25.50;58.60;;;;;;4040473;29;20401;-58
2022/10/27 00:16:01;;;;;;;0.85;0.30;;;25.50;58.60;;;;;;4043647;29;20470;-58
2022/10/27 00:18:23;;;;;;;1.75;0.45;;;25.50;58.60;;;;;;4039958;29;20143;-57
2022/10/27 00:21:07;;;;;;;0.20;0.20;;;25.50;58.60;;;;;;4043163;29;20036;-60
2022/10/27 00:23:30;;;;;;;0.95;0.55;;;25.60;58.60;;;;;;4043126;29;20091;-57
2022/10/27 00:25:54;;;;;;;1.75;0.40;;;25.60;58.50;;;;;;4041806;29;20025;-60
2022/10/27 00:28:17;;;;;;;0.70;0.40;;;25.60;58.50;;;;;;4044198;29;20055;-57
2022/10/27 00:30:39;;;;;;;1.75;0.45;;;25.60;58.40;;;;;;4044243;29;20037;-59
2022/10/27 00:33:02;;;;;;;3.63;0.40;;;25.70;58.40;;;;;;4045287;29;20047;-59
2022/10/27 00:35:24;;;;;;;3.53;0.60;;;25.70;58.50;;;;;;4049840;29;20032;-58
2022/10/27 00:37:47;;;;;;;5.20;0.40;;;25.70;58.50;;;;;;4048739;29;20060;-58
2022/10/27 00:40:10;;;;;;;2.28;0.57;;;25.70;58.80;;;;;;4051228;29;20051;-58
2022/10/27 00:42:33;;;;;;;5.20;0.63;;;25.70;58.80;;;;;;4052715;29;20075;-58
2022/10/27 00:44:55;;;;;;;1.33;0.40;;;25.70;58.80;;;;;;4052290;29;20442;-58
2022/10/27 00:47:25;;;;;;;0.32;0.30;;;25.70;58.70;;;;;;4048124;29;20044;-58
2022/10/27 00:50:05;;;;;;;0.35;0.35;;;25.70;58.70;;;;;;4043285;29;20040;-58
2022/10/27 00:52:31;;;;;;;1.10;0.40;;;25.70;58.80;;;;;;4051639;29;20040;-58
2022/10/27 00:54:59;;;;;;;0.65;0.30;;;25.60;58.80;;;;;;4046965;29;20042;-59
2022/10/27 00:57:22;;;;;;;1.65;0.40;;;25.60;58.80;;;;;;4049396;29;20056;-57
2022/10/27 00:59:45;;;;;;;0.73;0.40;;;25.70;58.90;;;;;;4048529;29;20189;-59
2022/10/27 01:02:09;;;;;;;4.25;0.45;;;25.70;58.90;;;;;;4049808;29;20044;-59
2022/10/27 01:04:45;;;;;;;0.55;0.38;;;25.70;59.00;;;;;;4044688;29;20468;-59
2022/10/27 01:07:07;;;;;;;1.95;0.43;;;25.70;59.10;;;;;;4045483;29;20184;-59
2022/10/27 01:09:31;;;;;;;2.50;0.40;;;25.70;59.00;;;;;;4046850;29;20254;-58
2022/10/27 01:11:53;;;;;;;0.82;0.50;;;25.70;59.10;;;;;;4042406;29;20039;-59
2022/10/27 01:14:16;;;;;;;0.43;0.43;;;25.70;59.00;;;;;;4050230;29;20048;-59
2022/10/27 01:16:47;;;;;;;4.75;0.63;;;25.70;58.90;;;;;;4049056;29;20052;-52
2022/10/27 01:19:24;;;;;;;3.40;0.82;;;25.70;59.10;;;;;;4053651;29;20681;-60
2022/10/27 01:22:05;;;;;;;2.53;0.80;;;25.70;59.00;;;;;;4055680;29;20051;-61
2022/10/27 01:25:01;;;;;;;0.80;0.60;;;25.70;58.50;;;;;;4056905;29;20118;-62
2022/10/27 01:28:03;;;;;;;3.15;0.55;;;25.70;57.00;;;;;;4048039;29;20548;-65
2022/10/27 01:30:29;;;;;;;2.22;0.82;;;25.70;56.40;;;;;;4048868;29;20136;-65
2022/10/27 01:33:20;;;;;;;1.02;0.75;;;25.60;56.30;;;;;;4050485;29;20108;-63
2022/10/27 01:35:53;;;;;;;1.23;0.90;;;25.60;56.70;;;;;;4044919;29;20665;-61
2022/10/27 01:38:30;;;;;;;2.45;1.00;;;25.60;56.70;;;;;;4051463;29;20412;-63
2022/10/27 01:41:18;;;;;;;0.60;0.60;;;25.60;56.90;;;;;;4045718;29;20466;-60
2022/10/27 01:43:41;;;;;;;5.50;0.95;;;25.60;57.30;;;;;;4044149;29;20123;-61
2022/10/27 01:46:07;;;;;;;1.75;0.70;;;25.60;57.40;;;;;;4044754;29;20040;-63
2022/10/27 01:48:33;;;;;;;1.73;0.63;;;25.70;57.70;;;;;;4045665;29;20036;-64
2022/10/27 01:50:56;;;;;;;2.17;0.50;;;25.70;57.60;;;;;;4044591;29;20155;-67
2022/10/27 01:53:18;;;;;;;2.47;0.73;;;25.70;57.00;;;;;;4042493;29;20048;-65
2022/10/27 01:55:56;;;;;;;5.22;0.95;;;25.70;56.80;;;;;;4047397;29;20501;-66
2022/10/27 01:58:55;;;;;;;1.70;0.60;;;25.60;56.80;;;;;;4045675;29;20167;-66
2022/10/27 02:01:48;;;;;;;1.25;0.70;;;25.60;56.80;;;;;;4049759;29;20096;-66
2022/10/27 02:04:29;;;;;;;1.55;0.85;;;25.60;56.60;;;;;;4045296;29;20043;-64
2022/10/27 02:07:13;;;;;;;6.03;0.90;;;25.60;56.70;;;;;;4049495;29;20048;-65
2022/10/27 02:10:11;;;;;;;1.08;0.60;;;25.60;56.60;;;;;;4052623;29;20450;-62
2022/10/27 02:12:35;;;;;;;1.00;0.88;;;25.70;56.80;;;;;;4015100;29;20083;-63
2022/10/27 02:15:01;;;;;;;0.98;0.65;;;25.70;56.90;;;;;;4048496;29;20050;-58
2022/10/27 02:17:28;;;;;;;3.75;0.63;;;25.70;56.90;;;;;;4049798;29;20119;-62
2022/10/27 02:19:54;;;;;;;5.13;1.35;;;25.70;57.40;;;;;;4050107;29;20115;-61
2022/10/27 02:22:17;;;;;;;1.55;0.65;;;25.70;57.80;;;;;;4047921;29;20076;-62
2022/10/27 02:24:40;;;;;;;1.60;0.80;;;25.70;57.90;;;;;;4048149;29;20102;-62
2022/10/27 02:27:22;;;;;;;4.53;0.70;;;25.80;57.80;;;;;;4049637;29;20279;-61
2022/10/27 02:29:48;;;;;;;1.17;0.70;;;25.80;57.90;;;;;;4050077;29;20504;-61
2022/10/27 02:32:20;;;;;;;2.03;0.70;;;25.80;58.00;;;;;;4048752;29;20854;-61
2022/10/27 02:34:44;;;;;;;0.75;0.52;;;25.80;58.00;;;;;;4048618;29;20119;-61
2022/10/27 02:37:08;;;;;;;1.17;0.60;;;25.80;58.10;;;;;;4047344;29;20048;-61
2022/10/27 02:39:31;;;;;;;0.95;0.70;;;25.80;58.20;;;;;;4052040;29;20044;-63
2022/10/27 02:41:54;;;;;;;0.85;0.70;;;25.80;58.10;;;;;;4045165;29;20192;-61
2022/10/27 02:44:16;;;;;;;0.88;0.75;;;25.80;58.10;;;;;;4043662;29;20492;-60
2022/10/27 02:46:39;;;;;;;1.15;1.00;;;25.80;58.20;;;;;;4049666;29;20116;-60
2022/10/27 02:49:01;;;;;;;1.10;0.60;;;25.80;58.30;;;;;;4053116;29;20044;-64
2022/10/27 02:51:24;;;;;;;0.88;0.63;;;25.80;58.40;;;;;;4054128;29;20044;-61
2022/10/27 02:53:46;;;;;;;1.52;0.70;;;25.90;58.50;;;;;;4047192;29;20040;-64
2022/10/27 02:56:09;;;;;;;1.25;0.63;;;25.90;58.50;;;;;;4046160;29;20052;-62
2022/10/27 02:58:32;;;;;;;2.78;0.95;;;25.90;58.80;;;;;;4044483;29;20052;-62
2022/10/27 03:00:55;;;;;;;1.25;0.90;;;25.90;58.90;;;;;;4046053;29;20115;-61
2022/10/27 03:03:18;;;;;;;1.38;0.60;;;25.90;59.00;;;;;;4048009;29;20040;-63
2022/10/27 03:05:40;;;;;;;0.88;0.75;;;25.90;59.00;;;;;;4055273;29;20048;-62
2022/10/27 03:08:03;;;;;;;1.45;0.77;;;25.90;58.90;;;;;;4044797;29;20491;-62
2022/10/27 03:10:26;;;;;;;4.47;1.00;;;26.00;59.00;;;;;;4055320;29;20036;-61
2022/10/27 03:12:48;;;;;;;2.55;0.73;;;26.00;59.00;;;;;;4048438;29;20480;-62
2022/10/27 03:15:11;;;;;;;0.73;0.52;;;26.00;59.00;;;;;;4047450;29;20072;-61
2022/10/27 03:17:33;;;;;;;1.75;0.60;;;26.00;59.00;;;;;;4050989;29;20052;-62
2022/10/27 03:19:56;;;;;;;5.95;0.65;;;26.00;59.00;;;;;;4052865;29;20077;-62
2022/10/27 03:22:18;;;;;;;5.43;1.08;;;26.00;59.10;;;;;;4049994;29;20052;-65
2022/10/27 03:24:41;;;;;;;0.65;0.50;;;26.00;59.20;;;;;;4051378;29;20052;-62
2022/10/27 03:27:04;;;;;;;1.02;0.60;;;26.00;59.30;;;;;;4051196;29;20051;-63
2022/10/27 03:29:26;;;;;;;2.22;1.10;;;26.00;59.30;;;;;;4041847;29;20124;-63
2022/10/27 03:31:49;;;;;;;4.40;1.17;;;26.00;59.20;;;;;;4045244;29;20672;-62
2022/10/27 03:34:11;;;;;;;2.72;0.90;;;26.00;59.30;;;;;;4051149;29;20051;-64
2022/10/27 03:36:34;;;;;;;1.98;0.80;;;26.00;59.40;;;;;;4046928;29;20393;-63
2022/10/27 03:38:56;;;;;;;1.73;0.85;;;26.00;59.10;;;;;;4047296;29;20481;-64
2022/10/27 03:41:19;;;;;;;3.15;0.88;;;25.90;59.20;;;;;;4043793;29;20293;-62
2022/10/27 03:43:41;;;;;;;2.17;0.80;;;26.00;59.10;;;;;;4042870;29;20043;-61
2022/10/27 03:46:04;;;;;;;2.55;0.80;;;26.00;59.30;;;;;;4046675;29;20048;-62
2022/10/27 03:48:26;;;;;;;0.95;0.65;;;26.00;59.00;;;;;;4047294;29;20047;-61
2022/10/27 03:50:50;;;;;;;1.52;0.75;;;26.00;59.00;;;;;;4047538;29;20048;-63
2022/10/27 03:53:13;;;;;;;1.38;0.80;;;26.00;59.10;;;;;;4049445;29;20048;-62
2022/10/27 03:55:35;;;;;;;3.53;0.90;;;26.00;58.90;;;;;;4052639;29;20040;-62
2022/10/27 03:57:59;;;;;;;0.80;0.60;;;26.00;58.90;;;;;;4042057;29;20044;-63
2022/10/27 04:00:22;;;;;;;1.10;0.52;;;26.00;58.70;;;;;;4043263;29;20100;-60
2022/10/27 04:02:45;;;;;;;6.55;0.90;;;26.00;58.50;;;;;;4044154;29;20167;-63
2022/10/27 04:05:08;;;;;;;4.00;1.20;;;26.10;58.60;;;;;;4045790;29;20464;-62
2022/10/27 04:07:30;;;;;;;9.93;1.05;;;26.00;58.60;;;;;;4045191;29;20063;-62
2022/10/27 04:09:53;;;;;;;1.77;0.93;;;26.10;58.80;;;;;;4049276;29;20079;-61
2022/10/27 04:12:15;;;;;;;5.55;0.80;;;26.10;58.90;;;;;;4044943;29;20052;-63
2022/10/27 04:14:38;;;;;;;3.17;0.63;;;26.10;59.00;;;;;;4047416;29;20118;-62
2022/10/27 04:17:00;;;;;;;0.93;0.57;;;26.10;58.90;;;;;;4046719;29;20048;-63
2022/10/27 04:19:23;;;;;;;2.38;0.90;;;26.10;59.00;;;;;;4050141;29;20051;-64
2022/10/27 04:21:46;;;;;;;2.97;0.82;;;26.20;59.00;;;;;;4045384;29;20040;-62
2022/10/27 04:24:08;;;;;;;0.83;0.60;;;26.10;59.10;;;;;;4045699;29;20044;-64
2022/10/27 04:26:31;;;;;;;0.80;0.40;;;26.20;59.20;;;;;;4049265;29;20040;-62
2022/10/27 04:28:53;;;;;;;1.88;0.45;;;26.20;59.30;;;;;;4044038;29;20862;-61
2022/10/27 04:31:16;;;;;;;1.70;0.57;;;26.20;59.30;;;;;;4045221;29;20083;-61
2022/10/27 04:33:38;;;;;;;1.15;0.60;;;26.20;59.30;;;;;;4046951;29;20147;-61
2022/10/27 04:36:01;;;;;;;2.03;0.75;;;26.20;59.50;;;;;;4046495;29;20048;-62
2022/10/27 04:38:23;;;;;;;2.45;0.70;;;26.20;59.30;;;;;;4039137;29;20495;-61
2022/10/27 04:40:46;;;;;;;9.25;0.88;;;26.20;59.50;;;;;;4041785;29;20109;-62
2022/10/27 04:43:08;;;;;;;5.47;0.52;;;26.20;59.60;;;;;;4041209;29;20484;-63
2022/10/27 04:45:31;;;;;;;1.90;0.73;;;26.20;59.70;;;;;;4045555;29;20047;-60
2022/10/27 04:47:53;;;;;;;2.03;0.73;;;26.20;59.70;;;;;;4044043;29;20546;-61
2022/10/27 04:50:17;;;;;;;2.38;0.60;;;26.30;59.80;;;;;;4045549;29;20038;-61
2022/10/27 04:52:40;;;;;;;1.55;0.40;;;26.30;59.80;;;;;;4040450;29;20078;-61
2022/10/27 04:55:03;;;;;;;1.02;0.43;;;26.30;59.80;;;;;;4043480;29;20044;-61
2022/10/27 04:57:25;;;;;;;0.52;0.32;;;26.30;59.70;;;;;;4044561;29;20512;-62
2022/10/27 04:59:48;;;;;;;0.82;0.50;;;26.30;59.80;;;;;;4041357;29;20040;-62
2022/10/27 05:02:10;;;;;;;1.27;0.50;;;26.30;59.80;;;;;;4038570;29;20040;-62
2022/10/27 05:04:33;;;;;;;0.65;0.40;;;26.40;59.90;;;;;;4044492;29;20048;-61
2022/10/27 05:06:55;;;;;;;4.10;0.85;;;26.40;59.90;;;;;;4044589;29;20075;-62
2022/10/27 05:09:18;;;;;;;1.67;0.73;;;26.40;59.70;;;;;;4044096;29;20044;-63
2022/10/27 05:11:40;;;;;;;1.05;0.38;;;26.50;59.70;;;;;;4046512;29;20051;-60
2022/10/27 05:14:03;;;;;;;3.30;0.60;;;26.50;59.60;;;;;;4040563;29;20519;-63
2022/10/27 05:16:25;;;;;;;0.82;0.47;;;26.60;59.60;;;;;;4045715;29;20119;-62
2022/10/27 05:18:48;;;;;;;9.02;0.85;;;26.60;59.50;;;;;;4044920;29;20409;-61
2022/10/27 05:21:11;;;;;;;0.52;0.50;;;26.70;59.30;;;;;;4046375;29;20459;-59
2022/10/27 05:23:33;;;;;;;4.03;0.82;;;26.70;59.10;;;;;;4040958;29;20496;-59
2022/10/27 05:25:56;;;;;;;1.40;0.60;;;26.80;59.20;;;;;;4046723;29;20044;-60
2022/10/27 05:28:19;;;;;;;1.33;0.50;;;26.80;59.10;;;;;;4045602;29;20055;-59
2022/10/27 05:30:42;;;;;;;0.40;0.40;;;26.90;59.00;;;;;;4046241;29;20067;-61
2022/10/27 05:33:04;;;;;;;1.58;0.47;;;27.00;58.90;;;;;;4047348;29;20598;-62
2022/10/27 05:35:27;;;;;;;2.47;0.60;;;27.00;58.80;;;;;;4049386;29;20036;-60
2022/10/27 05:37:50;;;;;;;1.48;0.60;;;27.20;58.60;;;;;;4043801;29;20056;-61
2022/10/27 05:40:13;;;;;;;1.55;0.57;;;27.20;58.40;;;;;;4045354;29;20422;-61
2022/10/27 05:42:35;;;;;;;3.30;0.60;;;27.30;58.30;;;;;;4045261;29;20513;-61
2022/10/27 05:44:58;;;;;;;0.63;0.32;;;27.50;58.20;;;;;;4041577;29;20032;-60
2022/10/27 05:47:21;;;;;;;2.58;0.25;;;27.60;57.90;;;;;;4038173;29;20343;-62
2022/10/27 05:49:43;;;;;;;2.42;0.47;;;27.70;57.80;;;;;;4039730;29;20404;-62
2022/10/27 05:52:06;;;;;;;3.30;0.30;;;27.70;57.50;;;;;;4039034;29;20064;-61
2022/10/27 05:54:28;;;;;;;1.35;0.45;;;27.80;57.30;;;;;;4039218;29;20198;-67
2022/10/27 05:56:51;;;;;;;2.05;0.70;;;27.90;56.20;;;;;;4041967;29;20541;-61
2022/10/27 05:59:14;;;;;;;1.08;0.50;;;28.00;54.60;;;;;;4048193;29;20079;-62
2022/10/27 06:01:36;;;;;;;1.05;0.70;;;28.00;53.70;;;;;;4053912;29;20044;-61
2022/10/27 06:03:59;;;;;;;2.70;0.70;;;27.90;52.90;;;;;;4050611;29;20048;-60
2022/10/27 06:06:22;;;;;;;2.22;1.00;;;27.90;52.80;;;;;;4050149;29;20104;-61
2022/10/27 06:08:44;;;;;;;0.68;0.60;;;27.90;53.20;;;;;;4049099;29;20069;-60
2022/10/27 06:11:07;;;;;;;0.82;0.52;;;27.80;52.70;;;;;;4051864;29;20528;-60
2022/10/27 06:13:29;;;;;;;0.47;0.45;;;27.80;52.90;;;;;;4051139;29;20044;-61
2022/10/27 06:15:52;;;;;;;0.40;0.40;;;27.70;52.80;;;;;;4050866;29;20314;-61
2022/10/27 06:18:15;;;;;;;0.55;0.52;;;27.70;52.90;;;;;;4049903;29;20055;-61
2022/10/27 06:20:37;;;;;;;0.50;0.50;;;27.60;52.90;;;;;;4045789;29;20040;-60
2022/10/27 06:23:00;;;;;;;1.20;0.50;;;27.60;52.70;;;;;;4050199;29;20051;-60
2022/10/27 06:25:22;;;;;;;1.00;0.50;;;27.60;52.70;;;;;;4049072;29;20445;-60
2022/10/27 06:27:46;;;;;;;3.03;0.63;;;27.50;52.80;;;;;;4051057;29;20290;-60
2022/10/27 06:30:09;;;;;;;0.77;0.50;;;27.40;52.90;;;;;;4050031;29;20420;-60
2022/10/27 06:32:31;;;;;;;1.08;0.63;;;27.30;53.00;;;;;;4046329;29;20091;-61
2022/10/27 06:34:54;;;;;;;1.17;0.70;;;27.30;52.80;;;;;;4047650;29;20048;-61
2022/10/27 06:37:16;;;;;;;0.75;0.65;;;27.30;52.90;;;;;;4052979;29;20056;-61
2022/10/27 06:39:40;;;;;;;0.40;0.40;;;27.20;53.00;;;;;;4048742;29;20129;-62
2022/10/27 06:42:03;;;;;;;1.75;0.57;;;27.20;53.20;;;;;;4050657;29;20044;-62
2022/10/27 06:44:26;;;;;;;0.70;0.70;;;27.10;53.00;;;;;;4046128;29;20032;-61
2022/10/27 06:46:48;;;;;;;1.00;0.63;;;27.10;53.10;;;;;;4052416;29;20385;-61
2022/10/27 06:49:11;;;;;;;0.95;0.50;;;27.10;53.30;;;;;;4052378;29;20504;-62
2022/10/27 06:51:33;;;;;;;2.25;0.60;;;27.10;53.10;;;;;;4051629;29;20135;-61
2022/10/27 06:53:56;;;;;;;2.17;0.88;;;27.10;53.10;;;;;;4051251;29;20057;-66
2022/10/27 06:56:18;;;;;;;0.65;0.55;;;27.00;53.30;;;;;;4047001;29;20036;-64
2022/10/27 06:58:41;;;;;;;3.97;0.70;;;27.00;53.50;;;;;;4045216;29;20076;-62
2022/10/27 07:01:03;;;;;;;1.00;0.35;;;27.00;53.60;;;;;;4049259;29;20507;-63
2022/10/27 07:03:26;;;;;;;1.15;0.57;;;27.00;53.60;;;;;;4043134;29;20056;-62
2022/10/27 07:05:48;;;;;;;0.70;0.60;;;27.00;53.90;;;;;;4044475;29;20167;-62
2022/10/27 07:08:11;;;;;;;0.82;0.43;;;27.00;53.80;;;;;;4044573;29;20066;-60
2022/10/27 07:10:33;;;;;;;0.85;0.52;;;27.00;53.90;;;;;;4056821;29;20506;-59
2022/10/27 07:13:02;;;;;;;1.85;0.50;;;26.90;54.00;;;;;;4050259;29;20036;-61
2022/10/27 07:15:27;;;;;;;5.03;0.80;;;26.90;54.30;;;;;;4054954;29;20064;-60
2022/10/27 07:17:55;;;;;;;1.48;0.38;;;26.90;54.60;;;;;;4053406;29;20064;-60
2022/10/27 07:20:18;;;;;;;2.15;0.60;;;26.90;54.30;;;;;;4042517;29;20043;-63
2022/10/27 07:22:41;;;;;;;2.72;0.70;;;26.90;54.60;;;;;;4042708;29;20104;-66
2022/10/27 07:25:04;;;;;;;2.13;0.75;;;26.90;54.60;;;;;;4045048;29;20072;-63
2022/10/27 07:27:26;;;;;;;5.33;0.93;;;26.80;54.50;;;;;;4044431;29;20571;-61
2022/10/27 07:29:49;;;;;;;6.45;0.70;;;26.90;54.80;;;;;;4045780;29;20138;-61
2022/10/27 07:32:12;;;;;;;2.53;0.83;;;26.90;55.00;;;;;;4051057;29;20103;-60
2022/10/27 07:34:34;;;;;;;3.92;0.75;;;26.80;55.50;;;;;;4045670;29;20036;-62
2022/10/27 07:36:57;;;;;;;3.75;0.80;;;26.80;55.60;;;;;;4053863;29;20123;-59
2022/10/27 07:39:19;;;;;;;2.78;0.77;;;26.90;55.60;;;;;;4045808;29;20564;-61
2022/10/27 07:41:42;;;;;;;2.25;0.50;;;26.80;55.60;;;;;;4050913;29;20040;-62
2022/10/27 07:44:04;;;;;;;3.13;0.80;;;26.90;55.80;;;;;;4045719;29;20081;-63
2022/10/27 07:46:28;;;;;;;2.08;0.45;;;26.80;55.90;;;;;;4051355;29;20032;-60
2022/10/27 07:48:50;;;;;;;;;;;26.80;56.10;;;;;;4048278;29;20043;-59
2022/10/27 07:51:12;;;;;;;1.65;0.60;;;26.80;56.00;;;;;;4041478;29;19949;-60
2022/10/27 07:53:35;;;;;;;3.22;0.52;;;26.80;56.00;;;;;;4049736;29;20408;-59
2022/10/27 07:55:58;;;;;;;0.50;0.50;;;26.80;56.00;;;;;;4047057;29;20048;-60
2022/10/27 07:58:21;;;;;;;5.13;0.80;;;26.80;56.00;;;;;;4042345;29;20130;-61
2022/10/27 08:00:47;;;;;;;1.90;0.70;;;26.80;56.00;;;;;;4045296;29;20618;-64
2022/10/27 08:03:30;;;;;;;9.88;0.93;;;26.80;55.30;;;;;;4040661;29;20131;-62
2022/10/27 08:05:53;;;;;;;4.20;0.63;;;26.80;55.10;;;;;;4042044;29;20335;-63
2022/10/27 08:08:16;;;;;;;0.80;0.47;;;26.80;55.20;;;;;;4041949;29;20523;-62
2022/10/27 08:10:40;;;;;;;3.60;0.45;;;26.70;54.90;;;;;;4045316;29;20036;-61
2022/10/27 08:13:03;;;;;;;1.25;0.60;;;26.70;54.50;;;;;;4038098;29;20044;-63
2022/10/27 08:15:26;;;;;;;1.63;0.63;;;26.70;54.50;;;;;;4041682;29;20126;-63
2022/10/27 08:17:58;;;;;;;4.43;1.00;;;26.70;54.50;;;;;;4042547;29;20138;-62
2022/10/27 08:20:22;;;;;;;4.25;0.77;;;26.60;54.30;;;;;;4046916;29;20040;-64
2022/10/27 08:22:44;;;;;;;0.40;0.40;;;26.60;54.30;;;;;;4045237;29;20112;-63
2022/10/27 08:25:07;;;;;;;3.72;0.50;;;26.60;54.50;;;;;;4046870;29;20052;-62
2022/10/27 08:27:32;;;;;;;1.90;0.47;;;26.60;54.50;;;;;;4042609;29;20390;-65
2022/10/27 08:29:55;;;;;;;5.30;0.63;;;26.60;54.20;;;;;;4041535;29;20488;-65
2022/10/27 08:32:17;;;;;;;1.67;0.70;;;26.60;54.30;;;;;;4045072;29;20044;-62
2022/10/27 08:34:40;;;;;;;0.80;0.70;;;26.50;54.30;;;;;;4040594;29;20049;-60
2022/10/27 08:37:02;;;;;;;1.40;0.70;;;26.50;54.20;;;;;;4042364;29;20408;-61
2022/10/27 08:39:25;;;;;;;3.17;0.75;;;26.50;53.90;;;;;;4039113;29;20040;-64
2022/10/27 08:42:09;;;;;;;6.15;2.05;;;26.50;53.90;;;;;;4044706;29;20400;-65
2022/10/27 08:45:08;;;;;;;4.82;1.60;;;26.40;54.00;;;;;;4037788;29;20066;-62
2022/10/27 08:47:31;;;;;;;5.95;1.92;;;26.40;54.20;;;;;;4038486;29;20048;-63
2022/10/27 08:49:57;;;;;;;8.48;2.22;;;26.40;54.40;;;;;;4042963;29;20401;-65
2022/10/27 08:52:33;;;;;;;6.57;1.77;;;26.40;54.40;;;;;;4040760;29;20511;-62
2022/10/27 08:55:14;;;;;;;3.85;1.60;;;26.40;54.40;;;;;;4047819;29;20444;-63
2022/10/27 08:57:38;;;;;;;3.63;1.50;;;26.40;54.20;;;;;;4042878;29;20086;-67
2022/10/27 09:00:01;;;;;;;5.25;1.80;;;26.40;54.20;;;;;;4040970;29;20044;-63
2022/10/27 09:02:48;;;;;;;2.58;1.15;;;26.40;54.20;;;;;;4043697;29;20087;-64
2022/10/27 09:05:37;;;;;;;3.03;1.25;;;26.40;54.10;;;;;;4049394;29;20035;-62
2022/10/27 09:08:10;;;;;;;4.25;1.30;;;26.30;54.20;;;;;;4042991;29;20044;-64
2022/10/27 09:11:03;;;;;;;3.47;1.10;;;26.30;53.90;;;;;;4045766;29;20036;-63
2022/10/27 09:13:55;;;;;;;3.72;1.58;;;26.30;54.00;;;;;;4033431;29;20048;-62
2022/10/27 09:16:33;;;;;;;5.47;1.25;;;26.30;54.00;;;;;;4040662;29;20629;-65
2022/10/27 09:18:59;;;;;;;4.13;1.42;;;26.30;54.30;;;;;;4040731;29;20075;-65
2022/10/27 09:21:24;;;;;;;5.15;1.30;;;26.30;54.50;;;;;;4044313;29;20040;-65
2022/10/27 09:24:00;;;;;;;3.60;0.85;;;26.30;54.80;;;;;;4039489;29;20055;-66
2022/10/27 09:26:29;;;;;;;2.55;0.90;;;26.30;55.00;;;;;;4040125;29;20048;-64
2022/10/27 09:28:54;;;;;;;4.57;0.77;;;26.30;55.20;;;;;;4040751;29;20050;-67
2022/10/27 09:31:21;;;;;;;2.20;0.95;;;26.30;55.30;;;;;;4039883;29;20515;-65
2022/10/27 09:34:04;;;;;;;4.07;1.02;;;26.30;55.50;;;;;;4043964;29;20040;-61
2022/10/27 09:36:27;;;;;;;2.72;0.95;;;26.30;55.50;;;;;;4044078;29;20047;-62
2022/10/27 09:38:50;;;;;;;5.13;0.80;;;26.30;55.80;;;;;;4040120;29;20493;-63
2022/10/27 09:41:12;;;;;;;5.88;0.65;;;26.30;55.80;;;;;;4044637;29;20405;-62
2022/10/27 09:43:36;;;;;;;1.33;0.60;;;26.30;55.80;;;;;;4044811;29;20241;-61
2022/10/27 09:46:23;;;;;;;2.10;0.60;;;26.30;55.90;;;;;;4037234;29;20028;-63
2022/10/27 09:48:46;;;;;;;1.08;0.60;;;26.30;55.80;;;;;;4037310;29;20077;-62
2022/10/27 09:51:18;;;;;;;3.42;0.60;;;26.30;55.80;;;;;;4045843;29;20103;-67
2022/10/27 09:53:43;;;;;;;2.78;0.50;;;26.30;55.80;;;;;;4041745;29;20556;-66
2022/10/27 09:56:07;;;;;;;0.63;0.40;;;26.30;56.00;;;;;;4044405;29;20857;-65
2022/10/27 09:58:30;;;;;;;2.13;0.68;;;26.30;56.60;;;;;;4043789;29;20052;-66
2022/10/27 10:01:01;;;;;;;0.73;0.40;;;26.30;55.90;;;;;;4041699;29;20101;-66
2022/10/27 10:03:24;;;;;;;1.45;0.45;;;26.30;56.00;;;;;;4041522;29;20054;-65
2022/10/27 10:05:57;;;;;;;2.00;1.05;;;26.30;56.00;;;;;;4043764;29;20059;-64
2022/10/27 10:08:24;;;;;;;1.55;0.40;;;26.30;56.10;;;;;;4043788;29;20897;-64
2022/10/27 10:11:22;;;;;;;0.50;0.40;;;26.30;56.10;;;;;;4044344;29;20160;-63
2022/10/27 10:13:57;;;;;;;1.30;0.50;;;26.30;56.00;;;;;;4039615;29;20404;-64
2022/10/27 10:16:20;;;;;;;0.22;0.22;;;26.30;56.00;;;;;;4037648;29;20321;-61
2022/10/27 10:19:01;;;;;;;0.70;0.50;;;26.30;56.00;;;;;;4039389;29;20102;-61
2022/10/27 10:21:23;;;;;;;1.63;0.55;;;26.30;56.00;;;;;;4041166;29;20043;-61
2022/10/27 10:23:50;;;;;;;1.27;0.60;;;26.20;56.20;;;;;;4040705;29;20495;-62
2022/10/27 10:26:19;;;;;;;6.50;0.70;;;26.30;56.30;;;;;;4044364;29;20397;-61
2022/10/27 10:28:43;;;;;;;1.38;0.40;;;26.30;56.30;;;;;;4041275;29;20511;-60
2022/10/27 10:31:16;;;;;;;1.20;0.55;;;26.30;56.30;;;;;;4044657;29;20464;-61
2022/10/27 10:33:41;;;;;;;1.00;0.50;;;26.20;56.10;;;;;;4039431;29;20037;-61
2022/10/27 10:36:28;;;;;;;0.55;0.45;;;26.30;56.20;;;;;;4038995;29;20120;-60
2022/10/27 10:38:54;;;;;;;1.95;0.50;;;26.20;56.40;;;;;;4040450;29;20056;-61
2022/10/27 10:41:20;;;;;;;1.45;0.40;;;26.30;56.40;;;;;;4043553;29;20484;-60
2022/10/27 10:43:43;;;;;;;0.90;0.63;;;26.30;56.50;;;;;;4047113;29;20047;-63
2022/10/27 10:46:15;;;;;;;1.52;0.30;;;26.20;56.70;;;;;;4045704;29;20047;-65
2022/10/27 10:49:03;;;;;;;1.00;0.60;;;26.20;56.60;;;;;;4045338;29;21128;-69
2022/10/27 10:51:35;;;;;;;0.95;0.77;;;26.20;54.70;;;;;;4045696;29;20047;-63
2022/10/27 10:54:05;;;;;;;1.08;0.60;;;26.20;53.30;;;;;;4044943;29;20048;-65
2022/10/27 10:56:36;;;;;;;2.88;0.63;;;26.20;54.10;;;;;;4042252;29;21087;-62
2022/10/27 10:59:13;;;;;;;10.93;0.70;;;26.20;54.60;;;;;;4050706;29;20056;-62
2022/10/27 11:01:46;;;;;;;0.35;0.32;;;26.10;54.80;;;;;;4049460;29;20894;-68
2022/10/27 11:04:20;;;;;;;0.77;0.47;;;26.10;55.10;;;;;;4050621;29;20044;-68
2022/10/27 11:06:57;;;;;;;1.92;0.50;;;26.10;55.20;;;;;;4044639;29;20123;-65
2022/10/27 11:09:19;;;;;;;0.90;0.40;;;26.10;55.50;;;;;;4044453;29;20048;-63
2022/10/27 11:11:45;;;;;;;0.30;0.30;;;26.20;55.50;;;;;;4052554;29;20083;-66
2022/10/27 11:14:13;;;;;;;0.80;0.40;;;26.20;55.60;;;;;;4050917;29;20044;-68
2022/10/27 11:16:37;;;;;;;1.35;0.30;;;26.10;55.60;;;;;;4051385;29;20044;-70
2022/10/27 11:19:02;;;;;;;0.30;0.30;;;26.10;55.80;;;;;;4053033;29;20063;-66
2022/10/27 11:21:34;;;;;;;0.30;0.30;;;26.20;56.10;;;;;;4057304;29;20028;-68
2022/10/27 11:24:00;;;;;;;0.80;0.30;;;26.20;56.10;;;;;;4047090;29;20080;-66
2022/10/27 11:26:48;;;;;;;0.52;0.30;;;26.20;55.80;;;;;;4049051;29;20048;-67
2022/10/27 11:29:39;;;;;;;1.00;0.40;;;26.20;55.90;;;;;;4046973;29;20488;-69
2022/10/27 11:32:16;;;;;;;1.58;0.55;;;26.20;55.90;;;;;;4045161;29;20576;-68
2022/10/27 11:35:05;;;;;;;1.42;0.60;;;26.20;56.00;;;;;;4051652;29;20147;-68
2022/10/27 11:37:50;;;;;;;1.35;0.38;;;26.20;55.90;;;;;;4052471;29;20044;-67
2022/10/27 11:40:39;;;;;;;0.30;0.30;;;26.20;55.90;;;;;;4054057;29;20040;-67
2022/10/27 11:43:23;;;;;;;0.85;0.40;;;26.20;56.00;;;;;;4045687;29;20108;-69
2022/10/27 11:45:54;;;;;;;0.30;0.30;;;26.20;55.80;;;;;;4050193;29;20039;-66
2022/10/27 11:48:35;;;;;;;0.22;0.22;;;26.20;55.90;;;;;;4047339;29;20504;-68
2022/10/27 11:51:07;;;;;;;0.65;0.40;;;26.20;56.00;;;;;;4044786;29;20195;-67
2022/10/27 11:53:30;;;;;;;0.50;0.50;;;26.20;55.80;;;;;;4043015;29;20044;-68
2022/10/27 11:56:16;;;;;;;0.40;0.30;;;26.20;55.80;;;;;;4048598;29;20060;-66
2022/10/27 11:58:44;;;;;;;0.30;0.30;;;26.20;55.80;;;;;;4052677;29;20095;-66
2022/10/27 12:01:15;;;;;;;0.55;0.50;;;26.20;55.90;;;;;;4047662;29;20674;-66
2022/10/27 12:03:48;;;;;;;0.30;0.30;;;26.30;55.80;;;;;;4046744;29;20048;-69
2022/10/27 12:06:26;;;;;;;0.90;0.30;;;26.30;55.80;;;;;;4048324;29;20049;-67
2022/10/27 12:09:18;;;;;;;2.28;0.50;;;26.30;55.60;;;;;;4048132;29;20062;-67
2022/10/27 12:12:13;;;;;;;1.85;0.50;;;26.30;55.70;;;;;;4048156;29;20400;-68
2022/10/27 12:14:43;;;;;;;;;;;26.30;55.60;;;;;;4046493;29;20144;-67
2022/10/27 12:17:11;;;;;;;0.75;0.55;;;26.30;55.70;;;;;;4045817;29;19919;-66
2022/10/27 12:19:46;;;;;;;1.05;0.38;;;26.30;55.70;;;;;;4044489;29;20048;-65
2022/10/27 12:22:34;;;;;;;15.23;1.17;;;26.30;55.70;;;;;;4044975;29;20071;-67
2022/10/27 12:25:00;;;;;;;8.95;1.10;;;26.20;55.70;;;;;;4042255;29;20176;-70
2022/10/27 12:27:31;;;;;;;2.40;1.02;;;26.20;55.70;;;;;;4048088;29;20084;-69
2022/10/27 12:29:59;;;;;;;8.82;0.77;;;26.20;55.60;;;;;;4049512;29;20036;-72
2022/10/27 12:32:37;;;;;;;3.28;0.60;;;26.20;55.60;;;;;;4045300;29;20071;-66
2022/10/27 12:35:08;;;;;;;2.38;0.50;;;26.20;55.60;;;;;;4045476;29;20067;-69
2022/10/27 12:37:47;;;;;;;4.07;0.60;;;26.20;55.70;;;;;;4050454;29;20080;-70
2022/10/27 12:40:20;;;;;;;0.98;0.50;;;26.20;55.70;;;;;;4042946;29;20570;-65
2022/10/27 12:42:58;;;;;;;1.40;0.63;;;26.20;55.70;;;;;;4050617;29;20126;-64
2022/10/27 12:46:07;;;;;;;1.52;0.57;;;26.20;55.80;;;;;;4047687;29;20059;-68
2022/10/27 12:48:42;;;;;;;2.17;0.30;;;26.20;55.90;;;;;;4036057;29;20110;-67
2022/10/27 12:51:27;;;;;;;1.50;0.60;;;26.10;55.80;;;;;;4050223;29;20151;-68